sensor_id;sensor_type;location;lat;lon;timestamp;temperature;humidity
19555;DHT22;9924;50.828;6.440;2022-12-08T00:01:58;4.60;99.90
19555;DHT22;9924;50.828;6.440;2022-12-08T00:04:43;4.50;99.90
19555;DHT22;9924;50.828;6.440;2022-12-08T00:07:46;4.50;99.90
19555;DHT22;9924;50.828;6.440;2022-12-08T00:10:49;4.40;99.90
19555;DHT22;9924;50.828;6.440;2022-12-08T00:13:34;4.40;99.90
19555;DHT22;9924;50.828;6.440;2022-12-08T00:16:21;4.40;99.90
19555;DHT22;9924;50.828;6.440;2022-12-08T00:19:06;4.40;99.90
19555;DHT22;9924;50.828;6.440;2022-12-08T00:21:50;4.40;99.90
19555;DHT22;9924;50.828;6.440;2022-12-08T00:24:37;4.40;99.90
19555;DHT22;9924;50.828;6.440;2022-12-08T00:27:22;4.40;99.90
19555;DHT22;9924;50.828;6.440;2022-12-08T00:30:07;4.40;99.90
19555;DHT22;9924;50.828;6.440;2022-12-08T00:32:52;4.40;99.90
19555;DHT22;9924;50.828;6.440;2022-12-08T00:35:37;4.40;99.90
19555;DHT22;9924;50.828;6.440;2022-12-08T00:38:21;4.40;99.90
19555;DHT22;9924;50.828;6.440;2022-12-08T00:41:17;4.40;99.90
19555;DHT22;9924;50.828;6.440;2022-12-08T00:44:01;4.40;99.90
19555;DHT22;9924;50.828;6.440;2022-12-08T00:46:50;4.40;99.90
19555;DHT22;9924;50.828;6.440;2022-12-08T00:49:34;4.40;99.90
19555;DHT22;9924;50.828;6.440;2022-12-08T00:52:19;4.30;99.90
19555;DHT22;9924;50.828;6.440;2022-12-08T00:55:04;4.30;99.90
19555;DHT22;9924;50.828;6.440;2022-12-08T00:57:49;4.40;99.90
19555;DHT22;9924;50.828;6.440;2022-12-08T01:00:34;4.40;99.90
19555;DHT22;9924;50.828;6.440;2022-12-08T01:03:19;4.40;99.90
19555;DHT22;9924;50.828;6.440;2022-12-08T01:06:04;4.40;99.90
19555;DHT22;9924;50.828;6.440;2022-12-08T01:08:48;4.40;99.90
19555;DHT22;9924;50.828;6.440;2022-12-08T01:11:34;4.40;99.90
19555;DHT22;9924;50.828;6.440;2022-12-08T01:14:22;4.40;99.90
19555;DHT22;9924;50.828;6.440;2022-12-08T01:17:10;4.40;99.90
19555;DHT22;9924;50.828;6.440;2022-12-08T01:19:54;4.40;99.90
19555;DHT22;9924;50.828;6.440;2022-12-08T01:22:39;4.40;99.90
19555;DHT22;9924;50.828;6.440;2022-12-08T01:25:23;4.40;99.90
19555;DHT22;9924;50.828;6.440;2022-12-08T01:28:08;4.40;99.90
19555;DHT22;9924;50.828;6.440;2022-12-08T01:30:52;4.40;99.90
19555;DHT22;9924;50.828;6.440;2022-12-08T01:33:37;4.30;99.90
19555;DHT22;9924;50.828;6.440;2022-12-08T01:36:25;4.30;99.90
19555;DHT22;9924;50.828;6.440;2022-12-08T01:39:17;4.30;99.90
19555;DHT22;9924;50.828;6.440;2022-12-08T01:42:02;4.30;99.90
19555;DHT22;9924;50.828;6.440;2022-12-08T01:44:53;4.30;99.90
19555;DHT22;9924;50.828;6.440;2022-12-08T01:47:41;4.30;99.90
19555;DHT22;9924;50.828;6.440;2022-12-08T01:50:28;4.30;99.90
19555;DHT22;9924;50.828;6.440;2022-12-08T01:53:48;4.30;99.90
19555;DHT22;9924;50.828;6.440;2022-12-08T01:56:46;4.30;99.90
19555;DHT22;9924;50.828;6.440;2022-12-08T01:59:36;4.30;99.90
19555;DHT22;9924;50.828;6.440;2022-12-08T02:02:23;4.30;99.90
19555;DHT22;9924;50.828;6.440;2022-12-08T02:05:09;4.30;99.90
19555;DHT22;9924;50.828;6.440;2022-12-08T02:07:57;4.30;99.90
19555;DHT22;9924;50.828;6.440;2022-12-08T02:10:43;4.30;99.90
19555;DHT22;9924;50.828;6.440;2022-12-08T02:13:28;4.30;99.90
19555;DHT22;9924;50.828;6.440;2022-12-08T02:16:48;4.30;99.90
19555;DHT22;9924;50.828;6.440;2022-12-08T02:34:44;4.30;99.90
19555;DHT22;9924;50.828;6.440;2022-12-08T02:37:41;4.30;99.90
19555;DHT22;9924;50.828;6.440;2022-12-08T02:40:47;4.30;99.90
19555;DHT22;9924;50.828;6.440;2022-12-08T02:43:59;4.40;99.90
19555;DHT22;9924;50.828;6.440;2022-12-08T02:47:12;4.30;99.90
19555;DHT22;9924;50.828;6.440;2022-12-08T02:49:58;4.30;99.90
19555;DHT22;9924;50.828;6.440;2022-12-08T02:52:44;4.30;99.90
19555;DHT22;9924;50.828;6.440;2022-12-08T02:55:43;4.20;99.90
19555;DHT22;9924;50.828;6.440;2022-12-08T03:08:11;4.20;99.90
19555;DHT22;9924;50.828;6.440;2022-12-08T03:14:16;4.20;99.90
19555;DHT22;9924;50.828;6.440;2022-12-08T03:17:02;4.20;99.90
19555;DHT22;9924;50.828;6.440;2022-12-08T03:19:48;4.10;99.90
19555;DHT22;9924;50.828;6.440;2022-12-08T03:22:33;4.10;99.90
19555;DHT22;9924;50.828;6.440;2022-12-08T03:25:21;4.10;99.90
19555;DHT22;9924;50.828;6.440;2022-12-08T03:28:06;4.10;99.90
19555;DHT22;9924;50.828;6.440;2022-12-08T03:30:53;4.10;99.90
19555;DHT22;9924;50.828;6.440;2022-12-08T03:33:42;4.10;99.90
19555;DHT22;9924;50.828;6.440;2022-12-08T03:36:27;4.00;99.90
19555;DHT22;9924;50.828;6.440;2022-12-08T03:39:12;4.00;99.90
19555;DHT22;9924;50.828;6.440;2022-12-08T03:41:56;4.00;99.90
19555;DHT22;9924;50.828;6.440;2022-12-08T03:44:40;4.00;99.90
19555;DHT22;9924;50.828;6.440;2022-12-08T03:47:28;3.90;99.90
19555;DHT22;9924;50.828;6.440;2022-12-08T03:50:12;4.00;99.90
19555;DHT22;9924;50.828;6.440;2022-12-08T03:52:57;4.00;99.90
19555;DHT22;9924;50.828;6.440;2022-12-08T03:55:41;4.00;99.90
19555;DHT22;9924;50.828;6.440;2022-12-08T03:58:26;4.00;99.90
19555;DHT22;9924;50.828;6.440;2022-12-08T04:01:11;4.00;99.90
19555;DHT22;9924;50.828;6.440;2022-12-08T04:03:55;4.00;99.90
19555;DHT22;9924;50.828;6.440;2022-12-08T04:06:40;3.90;99.90
19555;DHT22;9924;50.828;6.440;2022-12-08T04:09:27;4.00;99.90
19555;DHT22;9924;50.828;6.440;2022-12-08T04:12:12;4.00;99.90
19555;DHT22;9924;50.828;6.440;2022-12-08T04:14:57;4.00;99.90
19555;DHT22;9924;50.828;6.440;2022-12-08T04:17:41;4.00;99.90
19555;DHT22;9924;50.828;6.440;2022-12-08T04:20:26;4.00;99.90
19555;DHT22;9924;50.828;6.440;2022-12-08T04:23:11;4.00;99.90
19555;DHT22;9924;50.828;6.440;2022-12-08T04:25:58;4.00;99.90
19555;DHT22;9924;50.828;6.440;2022-12-08T04:28:43;4.00;99.90
19555;DHT22;9924;50.828;6.440;2022-12-08T04:31:28;4.00;99.90
19555;DHT22;9924;50.828;6.440;2022-12-08T04:34:15;4.00;99.90
19555;DHT22;9924;50.828;6.440;2022-12-08T04:37:00;4.10;99.90
19555;DHT22;9924;50.828;6.440;2022-12-08T04:39:45;4.00;99.90
19555;DHT22;9924;50.828;6.440;2022-12-08T04:42:29;4.10;99.90
19555;DHT22;9924;50.828;6.440;2022-12-08T04:45:14;4.10;99.90
19555;DHT22;9924;50.828;6.440;2022-12-08T04:48:00;4.10;99.90
19555;DHT22;9924;50.828;6.440;2022-12-08T04:50:45;4.10;99.90
19555;DHT22;9924;50.828;6.440;2022-12-08T04:53:30;4.10;99.90
19555;DHT22;9924;50.828;6.440;2022-12-08T04:56:17;4.10;99.90
19555;DHT22;9924;50.828;6.440;2022-12-08T04:59:02;4.10;99.90
19555;DHT22;9924;50.828;6.440;2022-12-08T05:01:47;4.10;99.90
19555;DHT22;9924;50.828;6.440;2022-12-08T05:04:31;4.20;99.90
19555;DHT22;9924;50.828;6.440;2022-12-08T05:07:16;4.20;99.90
19555;DHT22;9924;50.828;6.440;2022-12-08T05:10:01;4.20;99.90
19555;DHT22;9924;50.828;6.440;2022-12-08T05:12:45;4.20;99.90
19555;DHT22;9924;50.828;6.440;2022-12-08T05:15:30;4.10;99.90
19555;DHT22;9924;50.828;6.440;2022-12-08T05:18:15;4.20;99.90
19555;DHT22;9924;50.828;6.440;2022-12-08T05:20:59;4.10;99.90
19555;DHT22;9924;50.828;6.440;2022-12-08T05:23:45;4.10;99.90
19555;DHT22;9924;50.828;6.440;2022-12-08T05:26:29;4.10;99.90
19555;DHT22;9924;50.828;6.440;2022-12-08T05:29:14;4.10;99.90
19555;DHT22;9924;50.828;6.440;2022-12-08T05:31:59;4.10;99.90
19555;DHT22;9924;50.828;6.440;2022-12-08T05:34:43;4.10;99.90
19555;DHT22;9924;50.828;6.440;2022-12-08T05:37:28;4.10;99.90
19555;DHT22;9924;50.828;6.440;2022-12-08T05:40:12;4.10;99.90
19555;DHT22;9924;50.828;6.440;2022-12-08T05:42:57;4.10;99.90
19555;DHT22;9924;50.828;6.440;2022-12-08T05:45:41;4.00;99.90
19555;DHT22;9924;50.828;6.440;2022-12-08T05:48:26;4.00;99.90
19555;DHT22;9924;50.828;6.440;2022-12-08T05:51:22;4.00;99.90
19555;DHT22;9924;50.828;6.440;2022-12-08T05:54:07;4.00;99.90
19555;DHT22;9924;50.828;6.440;2022-12-08T05:56:52;4.00;99.90
19555;DHT22;9924;50.828;6.440;2022-12-08T05:59:40;4.00;99.90
19555;DHT22;9924;50.828;6.440;2022-12-08T06:02:25;3.90;99.90
19555;DHT22;9924;50.828;6.440;2022-12-08T06:05:10;4.00;99.90
19555;DHT22;9924;50.828;6.440;2022-12-08T06:07:54;4.00;99.90
19555;DHT22;9924;50.828;6.440;2022-12-08T06:10:43;3.90;99.90
19555;DHT22;9924;50.828;6.440;2022-12-08T06:13:28;4.00;99.90
19555;DHT22;9924;50.828;6.440;2022-12-08T06:16:12;4.00;99.90
19555;DHT22;9924;50.828;6.440;2022-12-08T06:18:57;4.00;99.90
19555;DHT22;9924;50.828;6.440;2022-12-08T06:21:41;4.00;99.90
19555;DHT22;9924;50.828;6.440;2022-12-08T06:24:26;4.00;99.90
19555;DHT22;9924;50.828;6.440;2022-12-08T06:27:10;4.00;99.90
19555;DHT22;9924;50.828;6.440;2022-12-08T06:29:55;4.00;99.90
19555;DHT22;9924;50.828;6.440;2022-12-08T06:32:40;4.00;99.90
19555;DHT22;9924;50.828;6.440;2022-12-08T06:35:25;4.00;99.90
19555;DHT22;9924;50.828;6.440;2022-12-08T06:38:09;4.00;99.90
19555;DHT22;9924;50.828;6.440;2022-12-08T06:40:55;4.00;99.90
19555;DHT22;9924;50.828;6.440;2022-12-08T06:43:40;4.00;99.90
19555;DHT22;9924;50.828;6.440;2022-12-08T06:46:25;4.00;99.90
19555;DHT22;9924;50.828;6.440;2022-12-08T06:49:10;4.00;99.90
19555;DHT22;9924;50.828;6.440;2022-12-08T06:51:55;4.00;99.90
19555;DHT22;9924;50.828;6.440;2022-12-08T06:54:40;4.00;99.90
19555;DHT22;9924;50.828;6.440;2022-12-08T06:57:24;4.00;99.90
19555;DHT22;9924;50.828;6.440;2022-12-08T07:00:09;4.00;99.90
19555;DHT22;9924;50.828;6.440;2022-12-08T07:02:54;3.90;99.90
19555;DHT22;9924;50.828;6.440;2022-12-08T07:05:39;3.90;99.90
19555;DHT22;9924;50.828;6.440;2022-12-08T07:08:24;3.90;99.90
19555;DHT22;9924;50.828;6.440;2022-12-08T07:11:09;3.90;99.90
19555;DHT22;9924;50.828;6.440;2022-12-08T07:13:57;3.90;99.90
19555;DHT22;9924;50.828;6.440;2022-12-08T07:16:45;3.90;99.90
19555;DHT22;9924;50.828;6.440;2022-12-08T07:19:29;3.90;99.90
19555;DHT22;9924;50.828;6.440;2022-12-08T07:22:14;3.90;99.90
19555;DHT22;9924;50.828;6.440;2022-12-08T07:24:58;3.80;99.90
19555;DHT22;9924;50.828;6.440;2022-12-08T07:27:43;3.80;99.90
19555;DHT22;9924;50.828;6.440;2022-12-08T07:30:28;3.80;99.90
19555;DHT22;9924;50.828;6.440;2022-12-08T07:33:12;3.90;99.90
19555;DHT22;9924;50.828;6.440;2022-12-08T07:35:58;3.90;99.90
19555;DHT22;9924;50.828;6.440;2022-12-08T07:38:43;3.90;99.90
19555;DHT22;9924;50.828;6.440;2022-12-08T07:41:28;3.90;99.90
19555;DHT22;9924;50.828;6.440;2022-12-08T07:44:13;4.00;99.90
19555;DHT22;9924;50.828;6.440;2022-12-08T07:46:57;3.90;99.90
19555;DHT22;9924;50.828;6.440;2022-12-08T07:49:42;4.00;99.90
19555;DHT22;9924;50.828;6.440;2022-12-08T07:52:27;4.00;99.90
19555;DHT22;9924;50.828;6.440;2022-12-08T07:55:12;4.00;99.90
19555;DHT22;9924;50.828;6.440;2022-12-08T07:57:56;4.00;99.90
19555;DHT22;9924;50.828;6.440;2022-12-08T08:00:41;4.00;99.90
19555;DHT22;9924;50.828;6.440;2022-12-08T08:03:26;4.00;99.90
19555;DHT22;9924;50.828;6.440;2022-12-08T08:06:11;4.00;99.90
19555;DHT22;9924;50.828;6.440;2022-12-08T08:08:55;4.00;99.90
19555;DHT22;9924;50.828;6.440;2022-12-08T08:11:39;3.90;99.90
19555;DHT22;9924;50.828;6.440;2022-12-08T08:14:24;3.90;99.90
19555;DHT22;9924;50.828;6.440;2022-12-08T08:17:09;3.90;99.90
19555;DHT22;9924;50.828;6.440;2022-12-08T08:19:53;3.80;99.90
19555;DHT22;9924;50.828;6.440;2022-12-08T08:22:38;3.70;99.90
19555;DHT22;9924;50.828;6.440;2022-12-08T08:25:23;3.60;99.90
19555;DHT22;9924;50.828;6.440;2022-12-08T08:28:08;3.50;99.90
19555;DHT22;9924;50.828;6.440;2022-12-08T08:30:52;3.50;99.90
19555;DHT22;9924;50.828;6.440;2022-12-08T08:33:37;3.50;99.90
19555;DHT22;9924;50.828;6.440;2022-12-08T08:36:22;3.30;99.90
19555;DHT22;9924;50.828;6.440;2022-12-08T08:39:06;3.20;99.90
19555;DHT22;9924;50.828;6.440;2022-12-08T08:41:51;3.30;99.90
19555;DHT22;9924;50.828;6.440;2022-12-08T08:44:36;3.30;99.90
19555;DHT22;9924;50.828;6.440;2022-12-08T08:47:22;3.30;99.90
19555;DHT22;9924;50.828;6.440;2022-12-08T08:50:06;3.30;99.90
19555;DHT22;9924;50.828;6.440;2022-12-08T08:52:51;3.40;99.90
19555;DHT22;9924;50.828;6.440;2022-12-08T08:55:38;3.50;99.90
19555;DHT22;9924;50.828;6.440;2022-12-08T08:58:22;3.50;99.90
19555;DHT22;9924;50.828;6.440;2022-12-08T09:01:07;3.50;99.90
19555;DHT22;9924;50.828;6.440;2022-12-08T09:03:52;3.50;99.90
19555;DHT22;9924;50.828;6.440;2022-12-08T09:06:37;3.60;99.90
19555;DHT22;9924;50.828;6.440;2022-12-08T09:09:22;3.70;99.90
19555;DHT22;9924;50.828;6.440;2022-12-08T09:12:07;3.60;99.90
19555;DHT22;9924;50.828;6.440;2022-12-08T09:14:51;3.60;99.90
19555;DHT22;9924;50.828;6.440;2022-12-08T09:17:37;3.50;99.90
19555;DHT22;9924;50.828;6.440;2022-12-08T09:20:21;3.50;99.90
19555;DHT22;9924;50.828;6.440;2022-12-08T09:23:05;3.50;99.90
19555;DHT22;9924;50.828;6.440;2022-12-08T09:25:50;3.50;99.90
19555;DHT22;9924;50.828;6.440;2022-12-08T09:28:34;3.50;99.90
19555;DHT22;9924;50.828;6.440;2022-12-08T09:31:20;3.60;99.90
19555;DHT22;9924;50.828;6.440;2022-12-08T09:34:05;3.50;99.90
19555;DHT22;9924;50.828;6.440;2022-12-08T09:36:49;3.60;99.90
19555;DHT22;9924;50.828;6.440;2022-12-08T09:39:34;3.60;99.90
19555;DHT22;9924;50.828;6.440;2022-12-08T09:42:42;3.70;99.90
19555;DHT22;9924;50.828;6.440;2022-12-08T09:45:29;3.70;99.90
19555;DHT22;9924;50.828;6.440;2022-12-08T09:48:19;3.80;99.90
19555;DHT22;9924;50.828;6.440;2022-12-08T09:51:04;3.80;99.90
19555;DHT22;9924;50.828;6.440;2022-12-08T09:53:55;3.80;99.90
19555;DHT22;9924;50.828;6.440;2022-12-08T09:56:41;4.00;99.90
19555;DHT22;9924;50.828;6.440;2022-12-08T09:59:29;4.00;99.90
19555;DHT22;9924;50.828;6.440;2022-12-08T10:02:23;4.10;99.90
19555;DHT22;9924;50.828;6.440;2022-12-08T10:05:12;4.10;99.90
19555;DHT22;9924;50.828;6.440;2022-12-08T10:08:07;4.20;99.90
19555;DHT22;9924;50.828;6.440;2022-12-08T10:10:59;4.30;99.90
19555;DHT22;9924;50.828;6.440;2022-12-08T10:14:25;4.30;99.90
19555;DHT22;9924;50.828;6.440;2022-12-08T10:17:28;4.30;99.90
19555;DHT22;9924;50.828;6.440;2022-12-08T10:20:20;4.30;99.90
19555;DHT22;9924;50.828;6.440;2022-12-08T10:26:09;4.40;99.90
19555;DHT22;9924;50.828;6.440;2022-12-08T10:28:55;4.50;99.90
19555;DHT22;9924;50.828;6.440;2022-12-08T10:31:45;4.70;99.90
19555;DHT22;9924;50.828;6.440;2022-12-08T10:34:30;4.70;99.90
19555;DHT22;9924;50.828;6.440;2022-12-08T10:37:15;4.70;99.90
19555;DHT22;9924;50.828;6.440;2022-12-08T10:40:12;4.80;99.90
19555;DHT22;9924;50.828;6.440;2022-12-08T10:42:58;4.80;99.90
19555;DHT22;9924;50.828;6.440;2022-12-08T10:45:43;4.90;99.90
19555;DHT22;9924;50.828;6.440;2022-12-08T10:48:29;5.00;99.90
19555;DHT22;9924;50.828;6.440;2022-12-08T10:51:27;5.00;99.90
19555;DHT22;9924;50.828;6.440;2022-12-08T10:54:32;4.90;99.90
19555;DHT22;9924;50.828;6.440;2022-12-08T10:57:21;4.90;99.90
19555;DHT22;9924;50.828;6.440;2022-12-08T11:00:14;4.90;99.90
19555;DHT22;9924;50.828;6.440;2022-12-08T11:03:01;4.90;99.90
19555;DHT22;9924;50.828;6.440;2022-12-08T11:05:46;4.80;99.90
19555;DHT22;9924;50.828;6.440;2022-12-08T11:08:31;4.80;99.90
19555;DHT22;9924;50.828;6.440;2022-12-08T11:11:16;4.80;99.90
19555;DHT22;9924;50.828;6.440;2022-12-08T11:14:06;4.90;99.90
19555;DHT22;9924;50.828;6.440;2022-12-08T11:16:53;4.90;99.90
19555;DHT22;9924;50.828;6.440;2022-12-08T11:19:40;5.00;99.90
19555;DHT22;9924;50.828;6.440;2022-12-08T11:22:36;5.00;99.90
19555;DHT22;9924;50.828;6.440;2022-12-08T11:25:25;5.10;99.90
19555;DHT22;9924;50.828;6.440;2022-12-08T11:28:10;5.10;99.90
19555;DHT22;9924;50.828;6.440;2022-12-08T11:31:42;5.20;99.90
19555;DHT22;9924;50.828;6.440;2022-12-08T11:34:10;5.10;99.90
19555;DHT22;9924;50.828;6.440;2022-12-08T11:37:03;5.20;99.90
19555;DHT22;9924;50.828;6.440;2022-12-08T11:39:51;5.20;99.90
19555;DHT22;9924;50.828;6.440;2022-12-08T11:42:56;5.20;99.90
19555;DHT22;9924;50.828;6.440;2022-12-08T11:45:42;5.20;99.90
19555;DHT22;9924;50.828;6.440;2022-12-08T11:48:56;5.30;99.90
19555;DHT22;9924;50.828;6.440;2022-12-08T11:51:50;5.40;99.90
19555;DHT22;9924;50.828;6.440;2022-12-08T11:55:02;5.50;99.90
19555;DHT22;9924;50.828;6.440;2022-12-08T11:57:47;5.40;99.90
19555;DHT22;9924;50.828;6.440;2022-12-08T12:00:33;5.40;99.90
19555;DHT22;9924;50.828;6.440;2022-12-08T12:19:02;5.40;99.90
19555;DHT22;9924;50.828;6.440;2022-12-08T12:21:56;5.40;99.90
19555;DHT22;9924;50.828;6.440;2022-12-08T12:24:44;5.30;99.90
19555;DHT22;9924;50.828;6.440;2022-12-08T12:27:39;5.30;99.90
19555;DHT22;9924;50.828;6.440;2022-12-08T12:30:27;5.30;99.90
19555;DHT22;9924;50.828;6.440;2022-12-08T12:33:14;5.20;99.90
19555;DHT22;9924;50.828;6.440;2022-12-08T12:36:10;5.20;99.90
19555;DHT22;9924;50.828;6.440;2022-12-08T12:38:56;5.20;99.90
19555;DHT22;9924;50.828;6.440;2022-12-08T12:41:51;5.10;99.90
19555;DHT22;9924;50.828;6.440;2022-12-08T12:44:38;5.10;99.90
19555;DHT22;9924;50.828;6.440;2022-12-08T12:47:48;5.00;99.90
19555;DHT22;9924;50.828;6.440;2022-12-08T12:56:02;5.10;99.90
19555;DHT22;9924;50.828;6.440;2022-12-08T12:58:47;5.10;99.90
19555;DHT22;9924;50.828;6.440;2022-12-08T13:01:49;5.10;99.90
19555;DHT22;9924;50.828;6.440;2022-12-08T13:04:36;5.10;99.90
19555;DHT22;9924;50.828;6.440;2022-12-08T13:07:23;5.10;99.90
19555;DHT22;9924;50.828;6.440;2022-12-08T13:10:12;5.10;99.90
19555;DHT22;9924;50.828;6.440;2022-12-08T13:15:51;5.30;99.90
19555;DHT22;9924;50.828;6.440;2022-12-08T13:18:40;5.40;99.90
19555;DHT22;9924;50.828;6.440;2022-12-08T13:21:33;5.40;99.90
19555;DHT22;9924;50.828;6.440;2022-12-08T13:33:25;5.20;99.90
19555;DHT22;9924;50.828;6.440;2022-12-08T13:36:26;5.10;99.90
19555;DHT22;9924;50.828;6.440;2022-12-08T13:39:24;5.10;99.90
19555;DHT22;9924;50.828;6.440;2022-12-08T13:42:29;5.10;99.90
19555;DHT22;9924;50.828;6.440;2022-12-08T13:45:20;5.10;99.90
19555;DHT22;9924;50.828;6.440;2022-12-08T13:48:46;5.10;99.90
19555;DHT22;9924;50.828;6.440;2022-12-08T13:51:40;5.10;99.90
19555;DHT22;9924;50.828;6.440;2022-12-08T13:54:38;5.00;99.90
19555;DHT22;9924;50.828;6.440;2022-12-08T14:00:16;4.90;99.90
19555;DHT22;9924;50.828;6.440;2022-12-08T14:03:01;4.80;99.90
19555;DHT22;9924;50.828;6.440;2022-12-08T14:05:46;4.90;99.90
19555;DHT22;9924;50.828;6.440;2022-12-08T14:08:33;4.80;99.90
19555;DHT22;9924;50.828;6.440;2022-12-08T14:11:50;4.80;99.90
19555;DHT22;9924;50.828;6.440;2022-12-08T14:14:44;4.80;99.90
19555;DHT22;9924;50.828;6.440;2022-12-08T14:17:29;4.80;99.90
19555;DHT22;9924;50.828;6.440;2022-12-08T14:20:29;4.80;99.90
19555;DHT22;9924;50.828;6.440;2022-12-08T14:23:15;4.80;99.90
19555;DHT22;9924;50.828;6.440;2022-12-08T14:26:02;4.70;99.90
19555;DHT22;9924;50.828;6.440;2022-12-08T14:28:48;4.60;99.90
19555;DHT22;9924;50.828;6.440;2022-12-08T14:31:33;4.70;99.90
19555;DHT22;9924;50.828;6.440;2022-12-08T14:34:18;4.60;99.90
19555;DHT22;9924;50.828;6.440;2022-12-08T14:37:02;4.60;99.90
19555;DHT22;9924;50.828;6.440;2022-12-08T14:39:47;4.50;99.90
19555;DHT22;9924;50.828;6.440;2022-12-08T14:42:42;4.40;99.90
19555;DHT22;9924;50.828;6.440;2022-12-08T14:45:31;4.30;99.90
19555;DHT22;9924;50.828;6.440;2022-12-08T14:54:12;4.20;99.90
19555;DHT22;9924;50.828;6.440;2022-12-08T14:57:00;4.10;99.90
19555;DHT22;9924;50.828;6.440;2022-12-08T14:59:46;4.00;99.90
19555;DHT22;9924;50.828;6.440;2022-12-08T15:02:31;3.90;99.90
19555;DHT22;9924;50.828;6.440;2022-12-08T15:05:19;3.90;99.90
19555;DHT22;9924;50.828;6.440;2022-12-08T15:08:05;3.80;99.90
19555;DHT22;9924;50.828;6.440;2022-12-08T15:14:26;3.60;99.90
19555;DHT22;9924;50.828;6.440;2022-12-08T15:17:33;3.50;99.90
19555;DHT22;9924;50.828;6.440;2022-12-08T15:20:26;3.40;99.90
19555;DHT22;9924;50.828;6.440;2022-12-08T15:23:24;3.30;99.90
19555;DHT22;9924;50.828;6.440;2022-12-08T15:26:21;3.20;99.90
19555;DHT22;9924;50.828;6.440;2022-12-08T15:29:12;3.10;99.90
19555;DHT22;9924;50.828;6.440;2022-12-08T15:32:01;3.00;99.90
19555;DHT22;9924;50.828;6.440;2022-12-08T15:34:46;2.90;99.90
19555;DHT22;9924;50.828;6.440;2022-12-08T15:37:30;2.80;99.90
19555;DHT22;9924;50.828;6.440;2022-12-08T15:40:18;2.70;99.90
19555;DHT22;9924;50.828;6.440;2022-12-08T15:43:02;2.70;99.90
19555;DHT22;9924;50.828;6.440;2022-12-08T15:45:47;2.60;99.90
19555;DHT22;9924;50.828;6.440;2022-12-08T15:48:32;2.50;99.90
19555;DHT22;9924;50.828;6.440;2022-12-08T15:51:17;2.40;99.90
19555;DHT22;9924;50.828;6.440;2022-12-08T15:54:02;2.20;99.90
19555;DHT22;9924;50.828;6.440;2022-12-08T15:56:53;2.20;99.90
19555;DHT22;9924;50.828;6.440;2022-12-08T15:59:38;2.10;99.90
19555;DHT22;9924;50.828;6.440;2022-12-08T16:02:22;2.10;99.90
19555;DHT22;9924;50.828;6.440;2022-12-08T16:05:07;2.00;99.90
19555;DHT22;9924;50.828;6.440;2022-12-08T16:07:53;2.00;99.90
19555;DHT22;9924;50.828;6.440;2022-12-08T16:10:37;1.90;99.90
19555;DHT22;9924;50.828;6.440;2022-12-08T16:13:24;1.90;99.90
19555;DHT22;9924;50.828;6.440;2022-12-08T16:16:28;1.80;99.90
19555;DHT22;9924;50.828;6.440;2022-12-08T16:19:13;1.80;99.90
19555;DHT22;9924;50.828;6.440;2022-12-08T16:21:58;1.70;99.90
19555;DHT22;9924;50.828;6.440;2022-12-08T16:24:42;1.60;99.90
19555;DHT22;9924;50.828;6.440;2022-12-08T16:27:30;1.50;99.90
19555;DHT22;9924;50.828;6.440;2022-12-08T16:30:17;1.50;99.90
19555;DHT22;9924;50.828;6.440;2022-12-08T16:33:02;1.60;99.90
19555;DHT22;9924;50.828;6.440;2022-12-08T16:35:46;1.50;99.90
19555;DHT22;9924;50.828;6.440;2022-12-08T16:38:31;1.60;99.90
19555;DHT22;9924;50.828;6.440;2022-12-08T16:41:16;1.60;99.90
19555;DHT22;9924;50.828;6.440;2022-12-08T16:44:20;1.60;99.90
19555;DHT22;9924;50.828;6.440;2022-12-08T16:47:08;1.60;99.90
19555;DHT22;9924;50.828;6.440;2022-12-08T16:49:53;1.50;99.90
19555;DHT22;9924;50.828;6.440;2022-12-08T16:52:37;1.60;99.90
19555;DHT22;9924;50.828;6.440;2022-12-08T16:55:22;1.60;99.90
19555;DHT22;9924;50.828;6.440;2022-12-08T16:58:07;1.60;99.90
19555;DHT22;9924;50.828;6.440;2022-12-08T17:00:57;1.50;99.90
19555;DHT22;9924;50.828;6.440;2022-12-08T17:03:43;1.50;99.90
19555;DHT22;9924;50.828;6.440;2022-12-08T17:06:28;1.40;99.90
19555;DHT22;9924;50.828;6.440;2022-12-08T17:09:12;1.40;99.90
19555;DHT22;9924;50.828;6.440;2022-12-08T17:11:57;1.40;99.90
19555;DHT22;9924;50.828;6.440;2022-12-08T17:14:42;1.30;99.90
19555;DHT22;9924;50.828;6.440;2022-12-08T17:17:26;1.30;99.90
19555;DHT22;9924;50.828;6.440;2022-12-08T17:20:16;1.30;99.90
19555;DHT22;9924;50.828;6.440;2022-12-08T17:23:01;1.40;99.90
19555;DHT22;9924;50.828;6.440;2022-12-08T17:25:56;1.40;99.90
19555;DHT22;9924;50.828;6.440;2022-12-08T17:28:41;1.50;99.90
19555;DHT22;9924;50.828;6.440;2022-12-08T17:31:27;1.50;99.90
19555;DHT22;9924;50.828;6.440;2022-12-08T17:34:12;1.60;99.90
19555;DHT22;9924;50.828;6.440;2022-12-08T17:36:57;1.70;99.90
19555;DHT22;9924;50.828;6.440;2022-12-08T17:39:42;1.70;99.90
19555;DHT22;9924;50.828;6.440;2022-12-08T17:42:27;1.70;99.90
19555;DHT22;9924;50.828;6.440;2022-12-08T17:45:12;1.70;99.90
19555;DHT22;9924;50.828;6.440;2022-12-08T17:47:56;1.70;99.90
19555;DHT22;9924;50.828;6.440;2022-12-08T17:50:43;1.60;99.90
19555;DHT22;9924;50.828;6.440;2022-12-08T17:53:27;1.60;99.90
19555;DHT22;9924;50.828;6.440;2022-12-08T17:56:20;1.60;99.90
19555;DHT22;9924;50.828;6.440;2022-12-08T17:59:04;1.60;99.90
19555;DHT22;9924;50.828;6.440;2022-12-08T18:01:51;1.60;99.90
19555;DHT22;9924;50.828;6.440;2022-12-08T18:04:35;1.70;99.90
19555;DHT22;9924;50.828;6.440;2022-12-08T18:07:20;1.80;99.90
19555;DHT22;9924;50.828;6.440;2022-12-08T18:10:08;1.90;99.90
19555;DHT22;9924;50.828;6.440;2022-12-08T18:12:53;1.90;99.90
19555;DHT22;9924;50.828;6.440;2022-12-08T18:15:37;2.00;99.90
19555;DHT22;9924;50.828;6.440;2022-12-08T18:18:24;2.00;99.90
19555;DHT22;9924;50.828;6.440;2022-12-08T18:21:10;2.10;99.90
19555;DHT22;9924;50.828;6.440;2022-12-08T18:23:55;2.10;99.90
19555;DHT22;9924;50.828;6.440;2022-12-08T18:26:39;2.10;99.90
19555;DHT22;9924;50.828;6.440;2022-12-08T18:29:24;2.10;99.90
19555;DHT22;9924;50.828;6.440;2022-12-08T18:32:09;2.10;99.90
19555;DHT22;9924;50.828;6.440;2022-12-08T18:34:54;2.20;99.90
19555;DHT22;9924;50.828;6.440;2022-12-08T18:37:38;2.20;99.90
19555;DHT22;9924;50.828;6.440;2022-12-08T18:40:23;2.30;99.90
19555;DHT22;9924;50.828;6.440;2022-12-08T18:43:08;2.40;99.90
19555;DHT22;9924;50.828;6.440;2022-12-08T18:46:02;2.40;99.90
19555;DHT22;9924;50.828;6.440;2022-12-08T18:48:49;2.50;99.90
19555;DHT22;9924;50.828;6.440;2022-12-08T18:51:33;2.50;99.90
19555;DHT22;9924;50.828;6.440;2022-12-08T18:54:17;2.50;99.90
19555;DHT22;9924;50.828;6.440;2022-12-08T18:57:02;2.50;99.90
19555;DHT22;9924;50.828;6.440;2022-12-08T18:59:47;2.60;99.90
19555;DHT22;9924;50.828;6.440;2022-12-08T19:02:32;2.60;99.90
19555;DHT22;9924;50.828;6.440;2022-12-08T19:05:17;2.70;99.90
19555;DHT22;9924;50.828;6.440;2022-12-08T19:08:01;2.80;99.90
19555;DHT22;9924;50.828;6.440;2022-12-08T19:10:49;2.80;99.90
19555;DHT22;9924;50.828;6.440;2022-12-08T19:13:33;2.80;99.90
19555;DHT22;9924;50.828;6.440;2022-12-08T19:16:18;2.80;99.90
19555;DHT22;9924;50.828;6.440;2022-12-08T19:19:03;2.80;99.90
19555;DHT22;9924;50.828;6.440;2022-12-08T19:21:48;2.70;99.90
19555;DHT22;9924;50.828;6.440;2022-12-08T19:24:35;2.70;99.90
19555;DHT22;9924;50.828;6.440;2022-12-08T19:27:20;2.70;99.90
19555;DHT22;9924;50.828;6.440;2022-12-08T19:30:05;2.70;99.90
19555;DHT22;9924;50.828;6.440;2022-12-08T19:32:50;2.60;99.90